Time;durP1;ratioP1;P1;durP2;ratioP2;P2;SDS_P1;SDS_P2;PMS_P1;PMS_P2;Temp;Humidity;BMP_temperature;BMP_pressure;BME280_temperature;BME280_humidity;BME280_pressure;Samples;Min_cycle;Max_cycle;Signal;HPM_P1;HPM_P2
2023/04/24 00:01:25;;;;;;;4.30;0.70;;;11.80;1.00;;;;;;5069280;28;20388;-51
2023/04/24 00:03:51;;;;;;;6.20;0.80;;;11.90;1.00;;;;;;5069984;28;20458;-51
2023/04/24 00:06:17;;;;;;;7.30;0.90;;;11.90;99.90;;;;;;5070387;28;20411;-51
2023/04/24 00:08:42;;;;;;;5.20;0.90;;;12.00;99.90;;;;;;5068974;28;20419;-51
2023/04/24 00:11:09;;;;;;;6.10;0.93;;;11.90;99.90;;;;;;5070571;28;20432;-51
2023/04/24 00:13:34;;;;;;;5.65;0.90;;;12.00;1.00;;;;;;5069206;28;20392;-51
2023/04/24 00:16:00;;;;;;;4.70;1.00;;;12.00;7.40;;;;;;5069921;28;20410;-52
2023/04/24 00:18:26;;;;;;;4.85;0.60;;;12.20;1.00;;;;;;5068843;28;20448;-52
2023/04/24 00:20:52;;;;;;;4.50;0.70;;;12.20;99.90;;;;;;5070400;28;20440;-52
2023/04/24 00:23:18;;;;;;;5.00;0.80;;;12.20;99.90;;;;;;5069884;28;20403;-52
2023/04/24 00:25:43;;;;;;;4.57;0.80;;;12.20;99.90;;;;;;5069402;28;20866;-52
2023/04/24 00:28:09;;;;;;;5.75;0.70;;;12.20;99.90;;;;;;5069085;28;20391;-52
2023/04/24 00:30:35;;;;;;;5.20;0.90;;;12.20;99.90;;;;;;5068550;28;20515;-52
2023/04/24 00:33:00;;;;;;;4.20;0.70;;;12.20;99.90;;;;;;5069878;28;20423;-52
2023/04/24 00:35:26;;;;;;;4.33;0.70;;;12.20;99.90;;;;;;5050691;28;20403;-52
2023/04/24 00:37:51;;;;;;;4.60;0.80;;;12.30;1.00;;;;;;5069328;28;20400;-51
2023/04/24 00:40:17;;;;;;;7.68;0.98;;;12.30;99.90;;;;;;5069472;28;20392;-51
2023/04/24 00:42:43;;;;;;;4.70;0.80;;;12.20;1.00;;;;;;5068541;28;20388;-51
2023/04/24 00:45:09;;;;;;;4.50;0.80;;;12.20;1.00;;;;;;5067475;28;20671;-51
2023/04/24 00:47:35;;;;;;;5.30;0.80;;;12.20;38.50;;;;;;5068795;28;20845;-51
2023/04/24 00:50:06;;;;;;;4.70;0.80;;;12.20;1.00;;;;;;5069207;28;20445;-51
2023/04/24 00:52:32;;;;;;;5.30;0.60;;;12.20;1.00;;;;;;5068709;28;20384;-51
2023/04/24 00:54:58;;;;;;;4.70;0.70;;;12.30;1.00;;;;;;5069065;28;20392;-51
2023/04/24 00:57:25;;;;;;;5.50;0.80;;;12.30;1.00;;;;;;5068107;28;20798;-51
2023/04/24 00:59:52;;;;;;;4.70;0.90;;;12.20;1.00;;;;;;5069427;28;20466;-51
2023/04/24 01:02:18;;;;;;;4.30;0.80;;;12.30;1.00;;;;;;5069099;28;20392;-52
2023/04/24 01:04:44;;;;;;;4.10;0.60;;;12.30;1.00;;;;;;5068031;28;20698;-51
2023/04/24 01:07:11;;;;;;;8.40;1.08;;;12.30;1.00;;;;;;5069074;28;20402;-51
2023/04/24 01:09:47;;;;;;;5.00;0.80;;;12.30;1.00;;;;;;5068272;28;20459;-51
2023/04/24 01:12:12;;;;;;;5.25;0.65;;;12.40;1.00;;;;;;5051127;28;20400;-51
2023/04/24 01:14:38;;;;;;;5.10;0.60;;;12.40;99.90;;;;;;5068389;28;20491;-51
2023/04/24 01:17:03;;;;;;;5.70;0.90;;;12.40;99.90;;;;;;5069050;28;20400;-51
2023/04/24 01:19:29;;;;;;;4.50;0.70;;;12.30;1.00;;;;;;5067839;28;20424;-51
2023/04/24 01:21:58;;;;;;;4.90;0.70;;;12.30;99.90;;;;;;5051316;28;20405;-51
2023/04/24 01:24:23;;;;;;;5.10;0.70;;;12.40;99.90;;;;;;5053200;28;20400;-51
2023/04/24 01:26:49;;;;;;;4.65;0.70;;;12.40;99.90;;;;;;5068881;28;20395;-51
2023/04/24 01:29:15;;;;;;;6.20;0.90;;;12.40;99.90;;;;;;5068218;28;20435;-51
2023/04/24 01:31:41;;;;;;;5.00;0.70;;;12.30;99.90;;;;;;5050177;28;20848;-51
2023/04/24 01:34:07;;;;;;;4.50;0.90;;;12.30;99.90;;;;;;5068921;28;20396;-51
2023/04/24 01:36:35;;;;;;;4.30;0.70;;;12.20;99.90;;;;;;5067725;28;20388;-51
2023/04/24 01:39:00;;;;;;;8.45;0.90;;;12.20;99.90;;;;;;5068310;28;20404;-51
2023/04/24 01:41:27;;;;;;;4.20;0.70;;;12.20;1.00;;;;;;5067713;28;20407;-51
2023/04/24 01:43:53;;;;;;;5.60;0.80;;;12.10;1.00;;;;;;5068863;28;20387;-51
2023/04/24 01:46:19;;;;;;;6.30;0.90;;;12.10;1.00;;;;;;5068698;28;20405;-51
2023/04/24 01:48:45;;;;;;;5.30;0.75;;;12.00;1.00;;;;;;5049886;28;20470;-51
2023/04/24 01:51:11;;;;;;;4.10;0.70;;;12.10;1.00;;;;;;5068100;28;20406;-51
2023/04/24 01:53:37;;;;;;;4.80;0.77;;;12.00;1.00;;;;;;5067780;28;20396;-50
2023/04/24 01:56:03;;;;;;;4.30;0.80;;;11.90;99.90;;;;;;5067729;28;20396;-51
2023/04/24 01:58:28;;;;;;;4.20;0.60;;;12.00;99.90;;;;;;5067496;28;20875;-51
2023/04/24 02:00:58;;;;;;;4.10;0.63;;;11.90;99.90;;;;;;5068110;28;20418;-52
2023/04/24 02:03:25;;;;;;;7.85;1.20;;;11.90;99.90;;;;;;5067492;28;20445;-52
2023/04/24 02:05:50;;;;;;;4.60;0.80;;;11.90;99.90;;;;;;5068077;28;20424;-52
2023/04/24 02:08:16;;;;;;;4.80;0.90;;;11.90;99.90;;;;;;5067652;28;20459;-52
2023/04/24 02:10:41;;;;;;;5.00;0.90;;;11.90;99.90;;;;;;5067304;28;20888;-52
2023/04/24 02:13:07;;;;;;;5.20;1.00;;;11.90;99.90;;;;;;5068260;28;20457;-52
2023/04/24 02:15:33;;;;;;;4.55;0.80;;;11.80;99.90;;;;;;5067646;28;20383;-52
2023/04/24 02:17:58;;;;;;;4.10;0.73;;;11.90;99.90;;;;;;5068490;28;20422;-52
2023/04/24 02:20:24;;;;;;;4.30;0.70;;;11.80;1.00;;;;;;5067827;28;20379;-52
2023/04/24 02:22:50;;;;;;;6.30;0.80;;;10.60;99.90;;;;;;5067581;28;20388;-52
2023/04/24 02:25:16;;;;;;;4.50;0.60;;;11.70;99.90;;;;;;5068030;28;20391;-52
2023/04/24 02:27:41;;;;;;;4.67;1.00;;;11.70;1.00;;;;;;5066890;28;20387;-52
2023/04/24 02:30:08;;;;;;;4.30;0.60;;;11.70;99.90;;;;;;5067242;28;20420;-52
2023/04/24 02:32:33;;;;;;;4.50;0.60;;;11.70;99.90;;;;;;5066738;28;20460;-52
2023/04/24 02:34:59;;;;;;;5.40;0.80;;;11.80;1.00;;;;;;5067913;28;20511;-52
2023/04/24 02:37:25;;;;;;;4.30;0.90;;;11.80;1.00;;;;;;5067397;28;20811;-52
2023/04/24 02:39:50;;;;;;;5.30;0.80;;;11.70;1.00;;;;;;5067701;28;20399;-52
2023/04/24 02:42:17;;;;;;;4.20;0.70;;;11.70;90.10;;;;;;5067745;28;20490;-52
2023/04/24 02:44:43;;;;;;;5.00;0.85;;;11.60;99.90;;;;;;5067157;28;21013;-51
2023/04/24 02:47:08;;;;;;;4.70;0.90;;;11.60;99.90;;;;;;5067275;28;20402;-52
2023/04/24 02:49:34;;;;;;;4.95;0.82;;;11.60;99.90;;;;;;5066927;28;20667;-52
2023/04/24 02:52:00;;;;;;;4.80;1.10;;;11.60;99.90;;;;;;5049299;28;20399;-52
2023/04/24 02:54:25;;;;;;;4.00;0.70;;;11.70;99.90;;;;;;5066935;28;20402;-52
2023/04/24 02:56:51;;;;;;;5.33;1.00;;;11.50;99.90;;;;;;5067517;28;20487;-52
2023/04/24 02:59:16;;;;;;;7.20;0.90;;;11.60;99.90;;;;;;5067585;28;20423;-52
2023/04/24 03:01:43;;;;;;;4.67;0.73;;;11.50;99.90;;;;;;5064343;28;20396;-51
2023/04/24 03:04:08;;;;;;;4.40;0.80;;;11.50;99.90;;;;;;5057657;28;20441;-51
2023/04/24 03:06:35;;;;;;;5.47;0.90;;;11.50;99.90;;;;;;5063797;28;20377;-51
2023/04/24 03:09:01;;;;;;;3.90;0.70;;;11.50;99.90;;;;;;5069328;28;20416;-52
2023/04/24 03:11:27;;;;;;;4.97;0.90;;;11.50;99.90;;;;;;5070239;28;20399;-51
2023/04/24 03:13:52;;;;;;;4.20;0.83;;;11.50;99.90;;;;;;5051411;28;20763;-52
2023/04/24 03:16:18;;;;;;;4.43;0.75;;;11.50;99.90;;;;;;5069979;28;20447;-52
2023/04/24 03:18:45;;;;;;;4.43;0.80;;;11.60;99.90;;;;;;5069941;28;20394;-52
2023/04/24 03:21:11;;;;;;;5.25;1.00;;;11.50;99.90;;;;;;5070753;28;20933;-51
2023/04/24 03:23:37;;;;;;;5.20;0.90;;;11.50;99.90;;;;;;5070142;28;20419;-51
2023/04/24 03:26:02;;;;;;;5.80;1.00;;;11.30;99.90;;;;;;5071366;28;20411;-51
2023/04/24 03:28:28;;;;;;;4.75;1.00;;;11.30;99.90;;;;;;5070626;28;20875;-52
2023/04/24 03:30:54;;;;;;;4.90;1.00;;;11.20;99.90;;;;;;5068836;28;20407;-51
2023/04/24 03:33:20;;;;;;;4.70;0.90;;;11.20;99.90;;;;;;5071163;28;20403;-52
2023/04/24 03:35:46;;;;;;;5.82;0.70;;;11.10;1.00;;;;;;5069707;28;21172;-51
2023/04/24 03:38:12;;;;;;;5.40;0.98;;;11.20;1.00;;;;;;5070759;28;20410;-52
2023/04/24 03:40:37;;;;;;;4.37;0.90;;;11.10;1.00;;;;;;5068888;28;20492;-51
2023/04/24 03:43:03;;;;;;;4.80;0.85;;;11.10;1.00;;;;;;5070791;28;20739;-52
2023/04/24 03:45:29;;;;;;;6.20;0.80;;;11.10;99.90;;;;;;5069607;28;20383;-52
2023/04/24 03:47:54;;;;;;;4.30;0.70;;;11.20;99.90;;;;;;5052492;28;20736;-52
2023/04/24 03:50:20;;;;;;;4.82;0.85;;;11.00;1.00;;;;;;5069220;28;20399;-51
2023/04/24 03:52:45;;;;;;;4.50;0.80;;;11.00;1.00;;;;;;5067943;28;20852;-51
2023/04/24 03:55:12;;;;;;;4.07;0.70;;;11.00;99.90;;;;;;5070912;28;20453;-51
2023/04/24 03:57:40;;;;;;;4.20;0.80;;;11.00;99.90;;;;;;5069512;28;20396;-51
2023/04/24 04:00:06;;;;;;;5.30;0.90;;;11.10;99.90;;;;;;5068609;28;20402;-51
2023/04/24 04:02:31;;;;;;;4.07;0.70;;;11.00;99.90;;;;;;5069221;28;20441;-50
2023/04/24 04:04:57;;;;;;;4.00;0.70;;;11.00;99.90;;;;;;5070678;28;20429;-50
2023/04/24 04:07:23;;;;;;;4.50;0.80;;;11.10;99.90;;;;;;5069778;28;20387;-50
2023/04/24 04:09:48;;;;;;;4.10;0.70;;;11.20;99.90;;;;;;5068779;28;20412;-50
2023/04/24 04:12:14;;;;;;;4.40;0.80;;;11.30;99.90;;;;;;5070658;28;20803;-51
2023/04/24 04:14:39;;;;;;;4.20;0.80;;;11.30;99.90;;;;;;5059967;28;20401;-51
2023/04/24 04:17:05;;;;;;;6.05;1.10;;;11.40;99.90;;;;;;5066813;28;20495;-51
2023/04/24 04:19:31;;;;;;;4.70;0.80;;;11.20;1.00;;;;;;5060298;28;20862;-50
2023/04/24 04:21:56;;;;;;;5.30;1.10;;;11.00;1.00;;;;;;5068718;28;20392;-51
2023/04/24 04:24:22;;;;;;;5.40;1.13;;;10.80;1.00;;;;;;5069122;28;20885;-51
2023/04/24 04:26:50;;;;;;;5.10;1.00;;;10.80;1.00;;;;;;5068391;28;20452;-51
2023/04/24 04:29:17;;;;;;;4.70;1.00;;;10.70;1.00;;;;;;5068077;28;20563;-51
2023/04/24 04:31:43;;;;;;;4.50;1.00;;;10.60;1.00;;;;;;5068928;28;21057;-51
2023/04/24 04:34:09;;;;;;;5.35;1.10;;;10.50;1.00;;;;;;5069512;28;20903;-51
2023/04/24 04:36:36;;;;;;;5.00;1.10;;;10.50;1.00;;;;;;5068411;28;20932;-50
2023/04/24 04:39:03;;;;;;;5.18;1.30;;;10.40;1.00;;;;;;5068128;28;20439;-50
2023/04/24 04:41:28;;;;;;;4.28;0.80;;;10.40;1.00;;;;;;5068693;28;20392;-50
2023/04/24 04:43:54;;;;;;;3.70;0.60;;;10.40;1.00;;;;;;5068097;28;20765;-50
2023/04/24 04:46:20;;;;;;;6.43;1.43;;;10.20;1.00;;;;;;5068648;28;20402;-50
2023/04/24 04:48:45;;;;;;;5.47;1.17;;;10.20;1.00;;;;;;5068181;28;21046;-50
2023/04/24 04:51:11;;;;;;;5.13;1.07;;;10.20;1.00;;;;;;5069087;28;20422;-51
2023/04/24 04:53:37;;;;;;;4.50;1.20;;;10.20;1.00;;;;;;5066988;28;20396;-50
2023/04/24 04:56:03;;;;;;;4.60;1.10;;;10.30;1.00;;;;;;5069296;28;20379;-50
2023/04/24 04:58:28;;;;;;;6.07;1.08;;;10.30;1.00;;;;;;5067810;28;20398;-50
2023/04/24 05:00:54;;;;;;;6.40;1.30;;;10.40;1.00;;;;;;5067962;28;20414;-50
2023/04/24 05:03:19;;;;;;;4.97;1.30;;;10.50;1.00;;;;;;5068623;28;20395;-50
2023/04/24 05:05:45;;;;;;;6.00;1.60;;;10.40;1.00;;;;;;5067797;28;20471;-50
2023/04/24 05:08:10;;;;;;;6.22;1.00;;;10.50;1.00;;;;;;5062984;28;20490;-50
2023/04/24 05:10:36;;;;;;;4.80;1.00;;;10.50;1.00;;;;;;5051893;28;20422;-50
2023/04/24 05:13:03;;;;;;;4.63;1.30;;;10.30;1.00;;;;;;5067114;28;20387;-51
2023/04/24 05:15:30;;;;;;;4.22;1.17;;;10.20;1.00;;;;;;5065012;28;20449;-51
2023/04/24 05:17:55;;;;;;;4.82;1.15;;;10.20;1.00;;;;;;5055760;28;20402;-50
2023/04/24 05:20:21;;;;;;;5.40;1.30;;;10.20;1.00;;;;;;5066532;28;20472;-50
2023/04/24 05:22:47;;;;;;;4.97;1.50;;;10.30;1.00;;;;;;5067878;28;20928;-51
2023/04/24 05:25:12;;;;;;;6.10;1.90;;;10.40;1.00;;;;;;5069046;28;20380;-50
2023/04/24 05:27:38;;;;;;;4.20;1.00;;;10.40;1.00;;;;;;5066884;28;20399;-51
2023/04/24 05:30:05;;;;;;;4.53;1.20;;;10.60;1.00;;;;;;5068227;28;20403;-51
2023/04/24 05:32:30;;;;;;;8.25;1.45;;;10.60;1.00;;;;;;5067497;28;20764;-51
2023/04/24 05:34:56;;;;;;;6.27;1.80;;;10.80;1.00;;;;;;5067060;28;20391;-51
2023/04/24 05:37:22;;;;;;;5.63;1.60;;;10.80;1.00;;;;;;5062764;28;20463;-51
2023/04/24 05:39:47;;;;;;;5.40;0.93;;;10.70;1.00;;;;;;5068059;28;20391;-50
2023/04/24 05:42:13;;;;;;;5.30;1.50;;;10.60;1.00;;;;;;5068249;28;20422;-51
2023/04/24 05:44:38;;;;;;;7.00;1.50;;;10.50;1.00;;;;;;5068273;28;20376;-51
2023/04/24 05:47:04;;;;;;;5.73;1.80;;;10.50;1.00;;;;;;5068513;28;20855;-51
2023/04/24 05:49:30;;;;;;;5.30;1.55;;;10.50;1.00;;;;;;5067767;28;20489;-50
2023/04/24 05:51:56;;;;;;;6.40;1.70;;;10.50;1.00;;;;;;5068997;28;20372;-51
2023/04/24 05:54:22;;;;;;;5.35;1.70;;;10.70;1.00;;;;;;5068637;28;20402;-50
2023/04/24 05:56:50;;;;;;;5.30;1.63;;;11.50;1.00;;;;;;5068028;28;21067;-51
2023/04/24 05:59:15;;;;;;;5.53;1.67;;;12.50;1.00;;;;;;5068848;28;20379;-51
2023/04/24 06:01:41;;;;;;;4.77;1.30;;;13.10;1.00;;;;;;5067835;28;20379;-51
2023/04/24 06:04:07;;;;;;;5.82;1.55;;;13.30;1.00;;;;;;5065765;28;20525;-51
2023/04/24 06:06:33;;;;;;;4.87;1.30;;;13.40;1.00;;;;;;5064236;28;20494;-50
2023/04/24 06:08:58;;;;;;;4.90;1.30;;;12.80;99.90;;;;;;5068242;28;20552;-51
2023/04/24 06:11:24;;;;;;;5.30;1.50;;;11.90;1.00;;;;;;5068104;28;20663;-50
2023/04/24 06:13:50;;;;;;;5.70;1.48;;;11.70;99.90;;;;;;5067723;28;20391;-50
2023/04/24 06:16:16;;;;;;;5.32;1.58;;;11.50;1.00;;;;;;5050068;28;20380;-50
2023/04/24 06:18:41;;;;;;;4.82;1.42;;;11.70;30.00;;;;;;5067195;28;20860;-51
2023/04/24 06:21:07;;;;;;;5.80;1.70;;;12.40;99.90;;;;;;5068230;28;20475;-51
2023/04/24 06:23:32;;;;;;;5.40;1.60;;;13.40;1.00;;;;;;5067437;28;20411;-52
2023/04/24 06:25:59;;;;;;;6.70;1.75;;;14.80;99.90;;;;;;5067991;28;20376;-51
2023/04/24 06:28:25;;;;;;;6.10;1.60;;;15.60;1.00;;;;;;5068391;28;20540;-52
2023/04/24 06:30:50;;;;;;;5.70;1.58;;;15.90;1.00;;;;;;5067681;28;21199;-52
2023/04/24 06:33:16;;;;;;;5.43;1.37;;;16.10;1.00;;;;;;5068378;28;20387;-52
2023/04/24 06:35:42;;;;;;;6.07;1.80;;;15.30;1.00;;;;;;5067161;28;20420;-51
2023/04/24 06:38:08;;;;;;;6.57;1.40;;;14.20;1.00;;;;;;5049697;28;20923;-52
2023/04/24 06:40:33;;;;;;;5.47;1.70;;;13.50;1.00;;;;;;5067367;28;20698;-51
2023/04/24 06:43:02;;;;;;;5.80;1.60;;;12.90;95.00;;;;;;5070599;28;20495;-51
2023/04/24 06:45:28;;;;;;;5.47;1.50;;;12.50;39.20;;;;;;5069977;28;20402;-52
2023/04/24 06:47:54;;;;;;;5.60;1.50;;;12.60;99.90;;;;;;5056747;28;20912;-52
2023/04/24 06:50:19;;;;;;;5.53;1.60;;;12.80;99.90;;;;;;5054112;28;20401;-51
2023/04/24 06:52:45;;;;;;;4.90;1.20;;;13.00;99.90;;;;;;5084230;28;21157;-52
2023/04/24 06:55:11;;;;;;;5.40;1.70;;;13.30;99.90;;;;;;5079366;28;20391;-51
2023/04/24 06:57:37;;;;;;;6.32;1.63;;;13.60;12.80;;;;;;5070652;28;20936;-52
2023/04/24 07:00:05;;;;;;;6.33;1.80;;;14.40;1.00;;;;;;5071167;28;20456;-52
2023/04/24 07:02:30;;;;;;;6.25;1.60;;;15.20;1.00;;;;;;5070571;28;20387;-52
2023/04/24 07:04:56;;;;;;;6.60;1.80;;;15.80;1.00;;;;;;5071732;28;20888;-52
2023/04/24 07:07:23;;;;;;;6.07;1.80;;;16.20;1.00;;;;;;5071009;28;20520;-52
2023/04/24 07:09:50;;;;;;;6.53;1.80;;;16.50;1.00;;;;;;5070521;28;20519;-52
2023/04/24 07:12:16;;;;;;;6.15;1.75;;;16.00;1.00;;;;;;5071261;28;20410;-52
2023/04/24 07:14:42;;;;;;;5.85;1.80;;;15.50;1.00;;;;;;5070353;28;20407;-53
2023/04/24 07:17:08;;;;;;;6.40;1.70;;;15.30;1.00;;;;;;5071078;28;20399;-52
2023/04/24 07:19:37;;;;;;;5.80;1.80;;;14.40;1.00;;;;;;5070323;28;20952;-51
2023/04/24 07:22:03;;;;;;;5.93;1.60;;;13.70;1.00;;;;;;5075806;28;20859;-51
2023/04/24 07:24:29;;;;;;;5.60;1.50;;;12.80;1.00;;;;;;5070690;28;20384;-50
2023/04/24 07:26:55;;;;;;;5.28;1.50;;;12.60;1.00;;;;;;5070744;28;20491;-51
2023/04/24 07:29:21;;;;;;;5.60;1.60;;;12.30;1.00;;;;;;5070749;28;20453;-51
2023/04/24 07:31:46;;;;;;;5.10;1.37;;;12.60;1.00;;;;;;5070468;28;20460;-52
2023/04/24 07:34:12;;;;;;;8.88;1.40;;;13.10;1.00;;;;;;5070360;28;20881;-51
2023/04/24 07:36:38;;;;;;;6.70;1.50;;;13.20;1.00;;;;;;5069479;28;20907;-51
2023/04/24 07:39:04;;;;;;;5.30;1.13;;;12.40;1.00;;;;;;5070946;28;20423;-51
2023/04/24 07:41:30;;;;;;;5.93;1.33;;;12.50;1.00;;;;;;5069783;28;20395;-51
2023/04/24 07:43:56;;;;;;;8.20;1.50;;;12.30;1.00;;;;;;5070861;28;20399;-51
2023/04/24 07:46:23;;;;;;;5.27;1.30;;;12.30;1.00;;;;;;5065890;28;20744;-51
2023/04/24 07:48:49;;;;;;;5.45;0.95;;;12.40;1.00;;;;;;5056315;28;20461;-51
2023/04/24 07:51:15;;;;;;;7.03;1.40;;;12.40;1.00;;;;;;5050882;28;20413;-51
2023/04/24 07:53:41;;;;;;;5.25;1.35;;;13.20;1.00;;;;;;5073074;28;20441;-51
2023/04/24 07:56:07;;;;;;;5.20;1.30;;;13.60;1.00;;;;;;5070367;28;20391;-52
2023/04/24 07:58:33;;;;;;;5.40;1.40;;;13.80;1.00;;;;;;5069447;28;20391;-51
2023/04/24 08:00:59;;;;;;;5.70;1.40;;;13.00;1.00;;;;;;5070400;28;20398;-52
2023/04/24 08:03:24;;;;;;;5.30;1.20;;;12.70;1.00;;;;;;5070396;28;20376;-50
2023/04/24 08:05:50;;;;;;;4.50;1.10;;;12.30;1.00;;;;;;5069617;28;20549;-51
2023/04/24 08:08:19;;;;;;;6.07;1.63;;;12.10;1.00;;;;;;5069928;28;20515;-51
2023/04/24 08:10:45;;;;;;;7.22;1.30;;;12.10;1.00;;;;;;5069247;28;20451;-51
2023/04/24 08:13:11;;;;;;;5.30;1.40;;;12.10;1.00;;;;;;5069591;28;20496;-51
2023/04/24 08:15:37;;;;;;;5.30;1.10;;;12.40;1.00;;;;;;5069490;28;20440;-51
2023/04/24 08:18:02;;;;;;;5.10;1.00;;;12.70;1.00;;;;;;5070577;28;20384;-50
2023/04/24 08:20:28;;;;;;;5.25;1.05;;;12.90;1.00;;;;;;5069767;28;20417;-51
2023/04/24 08:22:55;;;;;;;5.30;1.43;;;12.40;99.90;;;;;;5070241;28;20412;-51
2023/04/24 08:25:22;;;;;;;6.20;1.65;;;12.30;99.90;;;;;;5069951;28;20780;-51
2023/04/24 08:27:48;;;;;;;5.28;1.20;;;12.80;99.90;;;;;;5069346;28;20851;-51
2023/04/24 08:30:14;;;;;;;5.00;1.03;;;13.70;99.90;;;;;;5069118;28;20431;-51
2023/04/24 08:32:40;;;;;;;6.70;1.30;;;14.10;99.90;;;;;;5069215;28;20460;-51
2023/04/24 08:35:08;;;;;;;6.07;1.30;;;13.90;99.90;;;;;;5069921;28;20367;-50
2023/04/24 08:37:34;;;;;;;5.43;1.10;;;13.50;99.90;;;;;;5068844;28;20939;-52
2023/04/24 08:39:59;;;;;;;5.00;1.10;;;13.60;99.90;;;;;;5058065;28;20497;-52
2023/04/24 08:42:28;;;;;;;5.27;1.07;;;14.00;99.90;;;;;;5059738;28;20396;-52
2023/04/24 08:44:54;;;;;;;4.90;1.00;;;14.70;99.90;;;;;;5069400;28;20426;-52
2023/04/24 08:47:20;;;;;;;4.85;1.02;;;14.60;99.90;;;;;;5069774;28;20384;-52
2023/04/24 08:49:48;;;;;;;5.30;1.10;;;14.50;99.90;;;;;;5066780;28;20461;-51
2023/04/24 08:52:16;;;;;;;5.90;1.70;;;13.60;99.90;;;;;;5049420;28;20768;-51
2023/04/24 08:54:43;;;;;;;4.50;0.80;;;13.50;99.90;;;;;;5055477;28;20479;-51
2023/04/24 08:57:11;;;;;;;6.50;1.23;;;12.80;99.90;;;;;;5068951;28;20475;-51
2023/04/24 08:59:38;;;;;;;5.45;1.15;;;12.80;99.90;;;;;;5067270;28;20906;-51
2023/04/24 09:02:04;;;;;;;5.63;1.25;;;13.00;99.90;;;;;;5068817;28;20403;-52
2023/04/24 09:04:32;;;;;;;4.80;1.00;;;12.90;99.90;;;;;;5067435;28;20804;-51
2023/04/24 09:06:59;;;;;;;5.90;1.10;;;12.80;99.90;;;;;;5068763;28;20403;-51
2023/04/24 09:09:26;;;;;;;4.88;0.90;;;12.60;99.90;;;;;;5063475;28;20424;-51
2023/04/24 09:11:54;;;;;;;4.80;1.10;;;12.50;99.90;;;;;;5048813;28;20382;-51
2023/04/24 09:14:20;;;;;;;5.55;1.27;;;12.60;99.90;;;;;;5069368;28;20910;-52
2023/04/24 09:16:46;;;;;;;5.40;1.10;;;12.00;99.90;;;;;;5073940;28;20392;-52
2023/04/24 09:19:12;;;;;;;5.00;1.00;;;11.80;99.90;;;;;;5068359;28;20856;-52
2023/04/24 09:21:38;;;;;;;5.10;1.30;;;11.80;99.90;;;;;;5076481;28;20874;-52
2023/04/24 09:24:07;;;;;;;6.82;0.90;;;11.90;99.90;;;;;;5076099;28;20491;-52
2023/04/24 09:26:35;;;;;;;7.22;1.25;;;12.20;99.90;;;;;;5068229;28;20513;-51
2023/04/24 09:29:02;;;;;;;4.70;0.90;;;12.40;99.90;;;;;;5068037;28;20471;-51
2023/04/24 09:31:29;;;;;;;4.60;0.80;;;12.30;99.90;;;;;;5066903;28;20415;-51
2023/04/24 09:33:59;;;;;;;4.88;0.80;;;12.30;99.90;;;;;;5064078;28;20396;-51
2023/04/24 09:36:33;;;;;;;4.57;0.87;;;;;;;;;;5068404;28;20854;-50
2023/04/24 09:39:00;;;;;;;5.20;1.20;;;14.80;99.90;;;;;;5073675;28;20408;-51
2023/04/24 09:41:26;;;;;;;5.53;0.82;;;15.60;99.90;;;;;;5080751;28;20452;-51
2023/04/24 09:43:54;;;;;;;5.50;1.50;;;14.80;99.90;;;;;;5049283;28;20385;-50
2023/04/24 09:46:22;;;;;;;4.82;0.93;;;14.60;99.90;;;;;;5068414;28;20883;-51
2023/04/24 09:48:47;;;;;;;4.65;0.90;;;14.30;99.90;;;;;;5067305;28;20405;-51
2023/04/24 09:51:15;;;;;;;4.70;0.90;;;14.10;99.90;;;;;;5068145;28;20412;-51
2023/04/24 09:53:46;;;;;;;5.60;1.00;;;13.40;99.90;;;;;;5049092;28;20399;-51
2023/04/24 09:56:14;;;;;;;5.07;1.27;;;12.90;99.90;;;;;;5068514;28;20379;-51
2023/04/24 09:58:40;;;;;;;5.13;1.10;;;12.70;99.90;;;;;;5067419;28;21008;-51
2023/04/24 10:01:06;;;;;;;5.50;1.10;;;13.20;99.90;;;;;;5067822;28;20427;-51
2023/04/24 10:03:32;;;;;;;5.73;1.23;;;14.20;99.90;;;;;;5067883;28;20751;-52
2023/04/24 10:06:01;;;;;;;6.40;1.10;;;15.00;99.90;;;;;;5068087;28;20442;-51
2023/04/24 10:08:33;;;;;;;5.50;1.10;;;15.30;99.90;;;;;;5068373;28;20522;-51
2023/04/24 10:11:00;;;;;;;6.10;1.20;;;15.80;99.90;;;;;;5086460;28;20501;-51
2023/04/24 10:13:26;;;;;;;4.60;0.75;;;16.00;99.90;;;;;;5067576;28;20732;-51
2023/04/24 10:15:52;;;;;;;5.30;1.00;;;14.20;99.90;;;;;;5066850;28;20474;-51
2023/04/24 10:18:18;;;;;;;4.80;0.90;;;13.40;99.90;;;;;;5067796;28;20407;-51
2023/04/24 10:20:45;;;;;;;5.07;1.08;;;13.00;99.90;;;;;;5067258;28;20400;-51
2023/04/24 10:23:11;;;;;;;5.10;1.10;;;12.90;99.90;;;;;;5048825;28;20812;-50
2023/04/24 10:25:37;;;;;;;5.15;1.10;;;12.70;99.90;;;;;;5066839;28;20384;-51
2023/04/24 10:28:04;;;;;;;5.47;1.30;;;12.70;99.90;;;;;;5049274;28;20743;-51
2023/04/24 10:30:37;;;;;;;6.20;1.40;;;12.90;99.90;;;;;;5066753;28;20419;-51
2023/04/24 10:33:04;;;;;;;5.28;1.20;;;12.60;99.90;;;;;;5068083;28;20384;-51
2023/04/24 10:35:40;;;;;;;5.35;1.17;;;12.40;99.90;;;;;;5066385;28;20531;-51
2023/04/24 10:38:09;;;;;;;5.90;1.30;;;12.20;99.90;;;;;;5067027;28;20490;-51
2023/04/24 10:40:35;;;;;;;5.47;1.35;;;12.20;99.90;;;;;;5085581;28;20862;-51
2023/04/24 10:43:10;;;;;;;5.57;1.13;;;11.90;99.90;;;;;;5073268;28;20437;-51
2023/04/24 10:45:37;;;;;;;5.10;0.98;;;11.80;99.90;;;;;;5066954;28;20473;-51
2023/04/24 10:48:03;;;;;;;5.72;1.30;;;11.70;99.90;;;;;;5067461;28;20387;-51
2023/04/24 10:50:42;;;;;;;5.30;1.00;;;11.90;99.90;;;;;;5066342;28;20427;-51
2023/04/24 10:53:16;;;;;;;5.10;1.30;;;12.00;99.90;;;;;;5066849;28;20386;-51
2023/04/24 10:55:45;;;;;;;9.40;1.50;;;12.10;99.90;;;;;;5066591;28;20430;-51
2023/04/24 10:58:11;;;;;;;6.30;1.33;;;12.20;99.90;;;;;;5067430;28;20391;-52
2023/04/24 11:00:39;;;;;;;6.20;1.43;;;12.40;99.90;;;;;;5066340;28;20908;-52
2023/04/24 11:03:06;;;;;;;5.60;1.10;;;12.60;99.90;;;;;;5066944;28;20415;-51
2023/04/24 11:06:00;;;;;;;5.13;1.13;;;12.70;99.90;;;;;;5066185;28;20928;-52
2023/04/24 11:08:32;;;;;;;7.30;1.40;;;12.50;99.90;;;;;;5064340;28;20522;-51
2023/04/24 11:11:20;;;;;;;5.40;1.30;;;12.30;99.90;;;;;;5084310;28;20414;-51
2023/04/24 11:13:55;;;;;;;5.72;1.20;;;12.50;99.90;;;;;;5065993;28;20413;-51
2023/04/24 11:16:34;;;;;;;5.70;1.10;;;12.60;99.90;;;;;;5066957;28;20490;-51
2023/04/24 11:19:18;;;;;;;4.80;1.10;;;12.90;99.90;;;;;;5067570;28;20392;-51
2023/04/24 11:21:46;;;;;;;5.10;1.00;;;13.20;99.90;;;;;;5051906;28;20412;-51
2023/04/24 11:24:46;;;;;;;5.43;1.25;;;13.10;99.90;;;;;;5066824;28;20893;-51
2023/04/24 11:27:14;;;;;;;4.97;1.10;;;13.10;99.90;;;;;;5066751;28;20399;-52
2023/04/24 11:29:40;;;;;;;5.70;1.27;;;14.10;99.90;;;;;;5068102;28;20507;-51
2023/04/24 11:32:18;;;;;;;6.30;1.23;;;12.90;99.90;;;;;;5071143;28;20479;-55
2023/04/24 11:34:57;;;;;;;6.05;1.70;;;14.10;99.90;;;;;;5044607;28;20799;-51
2023/04/24 11:37:25;;;;;;;6.55;2.00;;;13.10;99.90;;;;;;5069788;28;20829;-51
2023/04/24 11:39:58;;;;;;;6.43;1.50;;;13.20;99.90;;;;;;5070807;28;20407;-51
2023/04/24 11:42:25;;;;;;;5.40;1.50;;;13.00;99.90;;;;;;5070367;28;20399;-51
2023/04/24 11:44:55;;;;;;;7.30;1.00;;;12.60;99.90;;;;;;5069610;28;20387;-51
2023/04/24 11:47:32;;;;;;;5.38;1.17;;;12.30;99.90;;;;;;5070228;28;20885;-51
2023/04/24 11:49:58;;;;;;;5.65;1.00;;;12.30;99.90;;;;;;5070189;28;20474;-51
2023/04/24 11:52:24;;;;;;;4.97;1.10;;;12.40;99.90;;;;;;5070314;28;20503;-52
2023/04/24 11:54:50;;;;;;;5.00;1.10;;;12.70;99.90;;;;;;5069450;28;20566;-51
2023/04/24 11:57:16;;;;;;;6.57;1.40;;;12.90;99.90;;;;;;5052410;28;20853;-54
2023/04/24 11:59:42;;;;;;;5.57;1.35;;;13.00;99.90;;;;;;5069536;28;20388;-51
2023/04/24 12:02:08;;;;;;;6.35;1.42;;;13.00;99.90;;;;;;5069380;28;20388;-51
2023/04/24 12:04:43;;;;;;;8.25;1.52;;;12.70;99.90;;;;;;5069589;28;20388;-52
2023/04/24 12:07:09;;;;;;;5.50;1.40;;;13.00;99.90;;;;;;5056515;28;20462;-52
2023/04/24 12:09:46;;;;;;;5.60;1.50;;;13.00;99.90;;;;;;5062804;28;20443;-52
2023/04/24 12:12:17;;;;;;;6.00;1.67;;;12.90;99.90;;;;;;5070463;28;20383;-51
2023/04/24 12:14:44;;;;;;;5.80;1.30;;;12.90;99.90;;;;;;5069032;28;20399;-52
2023/04/24 12:17:10;;;;;;;5.53;1.20;;;12.70;99.90;;;;;;5069497;28;20399;-51
2023/04/24 12:19:36;;;;;;;6.10;1.30;;;12.50;99.90;;;;;;5069438;28;20403;-52
2023/04/24 12:22:04;;;;;;;8.55;1.77;;;12.30;99.90;;;;;;5069886;28;20689;-50
2023/04/24 12:24:30;;;;;;;5.20;1.27;;;12.10;99.90;;;;;;5069218;28;20395;-51
2023/04/24 12:26:57;;;;;;;5.90;1.70;;;12.00;99.90;;;;;;5068983;28;20396;-51
2023/04/24 12:29:24;;;;;;;5.50;1.13;;;12.00;99.90;;;;;;5069568;28;20432;-51
2023/04/24 12:31:50;;;;;;;5.88;1.00;;;12.30;99.90;;;;;;5068771;28;20457;-51
2023/04/24 12:34:20;;;;;;;5.05;0.98;;;12.10;99.90;;;;;;5069601;28;20387;-51
2023/04/24 12:36:47;;;;;;;7.20;1.70;;;12.00;99.90;;;;;;5069028;28;20439;-51
2023/04/24 12:39:17;;;;;;;5.20;1.20;;;12.20;99.90;;;;;;5073553;28;20396;-51
2023/04/24 12:41:59;;;;;;;5.07;1.10;;;12.50;99.90;;;;;;5067307;28;20423;-51
2023/04/24 12:44:35;;;;;;;7.60;1.80;;;12.80;99.90;;;;;;5062102;28;20399;-51
2023/04/24 12:47:01;;;;;;;7.38;1.35;;;11.40;99.90;;;;;;5069464;28;20423;-51
2023/04/24 12:49:30;;;;;;;5.40;1.30;;;13.30;99.90;;;;;;5069230;28;20431;-51